Current Weather

Morristown Muni

Morristown, New Jersey (KMMU)

Report from: Monday, June 17, 2024 5:35 AM EDT
Current time: Monday, June 17, 2024 6:10 AM EDT

Nearby weather – Weather history – Daily summaries
Weather forecast

Temperature15.0°C (59.0°F)
Dew point14.0°C (57.2°F)
Winds Calm
Visibility7 mi. (11.3 km)
Clouds Sky clear
Altimeter30.20 in.Hg (1023 mB)
Relative humidity94 %
Density altitude-97 ft. (-30 m)
Remarks Fully automated report
Automated weather observing station with precipitation discriminator
Flight conditions Visual Meteorological Conditions
Raw dataKMMU 170935Z AUTO 00000KT 7SM CLR 15/14 A3020 RMK AO2
An error has occurred. This application may no longer respond until reloaded. Reload 🗙